Hlavní strana
METAR-TAF:

METAR-TAF

Letiště :

Leknes, Norsko

zeměpisná šířka: 68-09N, zeměpisná délka: 013-37E, výška: 2 m

Aktuální stav počasí

Zpráva byla vytvořena před 19 minutami, v 09:50 UTC
Jihozápadní vítr 11 kt, proměnlivý mezi západním a severoseverozápadním
Teplota 5°C
Vlhkost vzduchu 81%
Tlak 1002 hPa
Viditelnost 10 km a více
Oblačno až skoro zataženo ve výšce 2000 ft
přeháňky v blízkosti

METAR: ENLK 230950Z 229011KT 260V330 9999 VCSH BKN020 05/02 Q1002

Čas: 12:09 (10:09 UTC)


TAF: chybějící

Stav a předpovědi počasí z více než 4 000 letišť (zprávy METAR a TAF).

Červené a žluté tečky na mapě představují dostupné meteorologické stanice.

Když kurzor umístíte na tečku, zobrazí se název stanice.

Pak kliknutím zobrazíte stav a předpověď počasí.

Chcete-li změnit mapu, kliknutím na zelené tlačítko se znaménkem +mapu přiblížíte, kliknutím na zelené tlačítko se znaménkem – mapu oddálíte a kliknutím na zelené šipky přejdete na sousední mapy.


METAR-TAF: